This is the latest recevied weather packets stored in our database for station/object F4CYQ-10. If no packets are shown the sender has not sent any weather packets the latest 10 day(s).
| Time | Temp. | Humidity | Pressure | Rain* | Wind** | Luminosity | Snow |
|---|---|---|---|---|---|---|---|
| 1777867926 | 18.89° C | 60% | 1013 hPa | - | - | - | - |
| 1777867024 | 18.89° C | 60% | 1013 hPa | - | - | - | - |
| 1777866124 | 18.89° C | 60% | 1013 hPa | - | - | - | - |
| 1777865222 | 20.56° C | 60% | 1013.1 hPa | - | - | - | - |
| 1777864660 | 19.44° C | 61% | 1013.2 hPa | - | - | - | - |
| 1777864446 | 20.56° C | 60% | 1013.4 hPa | - | - | - | - |
| 1777863759 | 19.44° C | 60% | 1013.4 hPa | - | - | - | - |
| 1777862858 | 19.44° C | 60% | 1013.4 hPa | - | - | - | - |
| 1777861957 | 20.56° C | 60% | 1013.4 hPa | - | - | - | - |
| 1777861524 | 19.44° C | 60% | 1013.3 hPa | - | - | - | - |
| 1777860623 | 19.44° C | 59% | 1013.5 hPa | - | - | - | - |
| 1777859722 | 18.89° C | 59% | 1013.2 hPa | - | - | - | - |
| 1777858820 | -5° C | 100% | 4.8 hPa | - | - | - | - |
| 1777858607 | 18.89° C | 59% | 1013.2 hPa | - | - | - | - |
| 1777857706 | 18.89° C | 60% | 1013.2 hPa | - | - | - | - |
| 1777856805 | 18.89° C | 59% | 1012.8 hPa | - | - | - | - |
| 1777855904 | 20° C | 59% | 1013 hPa | - | - | - | - |
| 1777855828 | 19.44° C | 60% | 1012.9 hPa | - | - | - | - |
| 1777854926 | 19.44° C | 60% | 1012.9 hPa | - | - | - | - |
| 1777854386 | 20.56° C | 60% | 1012.8 hPa | - | - | - | - |
| 1777854025 | 19.44° C | 60% | 1012.5 hPa | - | - | - | - |
| 1777853124 | 20.56° C | 60% | 1012.8 hPa | - | - | - | - |
| 1777853035 | 20° C | 60% | 1012.7 hPa | - | - | - | - |
| 1777852134 | 18.89° C | 61% | 1012.6 hPa | - | - | - | - |
| 1777851490 | 21.11° C | 60% | 1013.2 hPa | - | - | - | - |
* Rain since midnight (hover to see other rain measurements)
** Current wind speed in m/s (hover to see current wind gust speed)